Time;durP1;ratioP1;P1;durP2;ratioP2;P2;SDS_P1;SDS_P2;PMS_P1;PMS_P2;Temp;Humidity;BMP_temperature;BMP_pressure;BME280_temperature;BME280_humidity;BME280_pressure;Samples;Min_cycle;Max_cycle;Signal;HPM_P1;HPM_P2
2023/01/06 00:01:34;;;;;;;1.88;1.77;;;7.10;99.90;;;;;;4958567;28;20061;-82
2023/01/06 00:04:02;;;;;;;2.90;1.48;;;7.10;99.90;;;;;;4976022;28;20043;-82
2023/01/06 00:06:30;;;;;;;2.15;2.00;;;7.10;99.90;;;;;;4952909;28;20260;-82
2023/01/06 00:09:02;;;;;;;;;;;7.00;99.90;;;;;;4957249;28;20035;-82
2023/01/06 00:11:30;;;;;;;1.50;1.40;;;6.90;99.90;;;;;;4950620;28;19922;-82
2023/01/06 00:13:58;;;;;;;1.33;1.23;;;6.90;99.90;;;;;;4952638;28;20063;-82
2023/01/06 00:16:26;;;;;;;1.17;1.08;;;6.80;99.90;;;;;;4973482;28;20046;-82
2023/01/06 00:18:55;;;;;;;1.30;1.20;;;6.90;99.90;;;;;;5004612;28;20054;-82
2023/01/06 00:21:23;;;;;;;1.25;1.25;;;6.90;99.90;;;;;;4957402;28;20047;-82
2023/01/06 00:23:51;;;;;;;1.10;1.00;;;6.90;99.90;;;;;;4937931;28;20058;-82
2023/01/06 00:26:19;;;;;;;1.20;1.20;;;6.80;99.90;;;;;;4971947;28;20062;-82
2023/01/06 00:28:50;;;;;;;4.10;2.10;;;6.80;99.90;;;;;;4969536;28;20422;-81
2023/01/06 00:31:18;;;;;;;65.97;10.00;;;6.50;99.90;;;;;;4970519;28;20081;-82
2023/01/06 00:33:46;;;;;;;51.50;6.55;;;6.20;99.90;;;;;;4971326;28;20054;-82
2023/01/06 00:36:14;;;;;;;24.85;4.07;;;5.90;99.90;;;;;;4969055;28;20054;-82
2023/01/06 00:38:41;;;;;;;24.13;3.70;;;5.60;99.90;;;;;;4968854;28;20423;-82
2023/01/06 00:43:58;;;;;;;7.90;2.00;;;5.50;99.90;;;;;;4970087;28;20055;-82
2023/01/06 00:46:30;;;;;;;33.83;4.05;;;5.50;99.90;;;;;;4982259;28;20066;-82
2023/01/06 00:48:59;;;;;;;37.28;3.95;;;5.60;99.90;;;;;;4972277;28;20054;-82
2023/01/06 00:51:37;;;;;;;40.30;2.58;;;5.30;99.90;;;;;;4989524;28;20057;-82
2023/01/06 00:54:06;;;;;;;51.53;3.20;;;5.10;99.90;;;;;;5002821;28;20050;-82
2023/01/06 00:56:50;;;;;;;24.15;5.32;;;4.80;99.90;;;;;;5004791;28;20077;-82
2023/01/06 00:59:21;;;;;;;6.13;1.52;;;4.50;99.90;;;;;;4991136;28;20294;-82
2023/01/06 01:01:52;;;;;;;28.75;1.58;;;4.30;99.90;;;;;;4972333;28;20054;-82
2023/01/06 01:04:22;;;;;;;9.05;1.17;;;4.30;99.90;;;;;;4971916;28;20039;-82
2023/01/06 01:06:51;;;;;;;2.10;1.10;;;4.40;99.90;;;;;;4989140;28;20062;-81
2023/01/06 01:09:25;;;;;;;1.00;1.00;;;4.50;99.90;;;;;;4941168;28;20051;-82
2023/01/06 01:12:09;;;;;;;1.23;1.13;;;4.50;99.90;;;;;;4951289;28;20086;-82
2023/01/06 01:14:52;;;;;;;10.75;1.20;;;4.40;99.90;;;;;;4950515;29;20373;-82
2023/01/06 01:17:23;;;;;;;8.98;1.38;;;4.30;99.90;;;;;;4946816;28;20051;-82
2023/01/06 01:19:54;;;;;;;70.90;2.60;;;4.20;99.90;;;;;;4937725;28;20330;-81
2023/01/06 01:22:23;;;;;;;0.93;0.93;;;4.10;99.90;;;;;;4987787;28;20054;-82
2023/01/06 01:24:51;;;;;;;1.75;1.65;;;4.10;99.90;;;;;;4989032;28;20050;-81
2023/01/06 01:27:18;;;;;;;21.40;2.33;;;4.10;99.90;;;;;;4989439;28;20437;-82
2023/01/06 01:29:46;;;;;;;24.55;2.70;;;4.20;99.90;;;;;;4988910;28;20062;-82
2023/01/06 01:32:14;;;;;;;1.52;1.10;;;4.20;99.90;;;;;;4987747;28;20101;-82
2023/01/06 01:34:41;;;;;;;1.50;1.40;;;4.20;99.90;;;;;;4988235;28;20058;-82
2023/01/06 01:37:09;;;;;;;6.82;1.10;;;4.20;99.90;;;;;;4987976;28;20057;-82
2023/01/06 01:39:37;;;;;;;9.52;1.50;;;4.10;99.90;;;;;;4988699;28;20387;-82
2023/01/06 01:42:12;;;;;;;2.08;1.98;;;4.00;99.90;;;;;;4988159;28;20464;-82
2023/01/06 01:45:01;;;;;;;5.60;2.28;;;3.90;99.90;;;;;;4989105;28;20046;-82
2023/01/06 01:47:34;;;;;;;2.38;2.10;;;4.10;99.90;;;;;;4987242;28;20070;-82
2023/01/06 01:50:11;;;;;;;2.22;1.63;;;4.10;99.90;;;;;;4988579;28;20069;-82
2023/01/06 01:52:41;;;;;;;6.22;2.53;;;4.10;99.90;;;;;;4987833;28;20046;-82
2023/01/06 01:55:09;;;;;;;1.98;1.88;;;4.10;99.90;;;;;;4987454;28;20054;-82
2023/01/06 01:58:04;;;;;;;2.22;2.13;;;4.20;99.90;;;;;;4987196;28;20061;-82
2023/01/06 02:00:34;;;;;;;2.60;2.40;;;4.20;99.90;;;;;;4962095;28;20057;-82
2023/01/06 02:03:03;;;;;;;4.30;1.83;;;4.20;99.90;;;;;;4987545;28;20078;-82
2023/01/06 02:05:35;;;;;;;8.15;1.92;;;4.20;99.90;;;;;;4968840;28;20061;-82
2023/01/06 02:08:29;;;;;;;12.55;2.28;;;4.00;99.90;;;;;;4966883;28;20054;-82
2023/01/06 02:10:57;;;;;;;3.08;2.53;;;3.60;99.90;;;;;;4958740;28;20053;-82
2023/01/06 02:13:25;;;;;;;1.67;1.58;;;3.60;99.90;;;;;;4967991;28;20085;-82
2023/01/06 02:16:04;;;;;;;7.82;2.15;;;3.70;99.90;;;;;;4967997;28;20592;-82
2023/01/06 02:18:50;;;;;;;11.95;2.50;;;3.80;99.90;;;;;;4969993;28;20066;-82
2023/01/06 02:21:31;;;;;;;40.63;4.03;;;3.90;99.90;;;;;;4981938;28;20058;-81
2023/01/06 02:24:34;;;;;;;26.00;4.13;;;4.00;99.90;;;;;;4985403;28;20053;-82
2023/01/06 02:27:30;;;;;;;16.65;1.55;;;4.10;99.90;;;;;;4988154;28;20049;-82
2023/01/06 02:30:26;;;;;;;1.85;1.75;;;4.10;99.90;;;;;;4970612;28;20058;-81
2023/01/06 02:32:57;;;;;;;39.17;3.05;;;4.10;99.90;;;;;;4987173;28;20039;-81
2023/01/06 02:36:01;;;;;;;1.80;1.63;;;4.00;99.90;;;;;;4987101;28;20061;-82
2023/01/06 02:39:10;;;;;;;18.55;2.17;;;4.00;99.90;;;;;;4970357;28;20047;-82
2023/01/06 02:41:45;;;;;;;103.82;8.65;;;3.80;99.90;;;;;;4987078;28;20047;-82
2023/01/06 02:44:53;;;;;;;25.10;3.63;;;3.80;99.90;;;;;;4970583;28;20050;-82
2023/01/06 02:47:40;;;;;;;26.60;3.45;;;3.70;99.90;;;;;;4973597;28;20050;-82
2023/01/06 02:50:08;;;;;;;118.55;6.40;;;3.90;99.90;;;;;;4990960;28;20058;-82
2023/01/06 02:52:50;;;;;;;30.13;2.92;;;4.00;99.90;;;;;;4991279;28;20050;-82
2023/01/06 02:55:33;;;;;;;100.15;7.43;;;4.10;99.90;;;;;;4974284;28;20054;-82
2023/01/06 02:58:09;;;;;;;69.20;4.57;;;4.10;99.90;;;;;;4991347;28;20050;-82
2023/01/06 03:00:51;;;;;;;2.33;2.13;;;4.10;99.90;;;;;;4974536;28;20046;-82
2023/01/06 03:03:23;;;;;;;7.23;2.43;;;4.00;99.90;;;;;;4973732;28;20046;-82
2023/01/06 03:05:57;;;;;;;30.10;6.68;;;3.90;99.90;;;;;;4989509;28;20065;-82
2023/01/06 03:08:29;;;;;;;11.82;3.85;;;3.70;99.90;;;;;;4966964;28;20054;-82
2023/01/06 03:10:59;;;;;;;72.70;9.50;;;3.80;99.90;;;;;;4951820;28;20051;-82
2023/01/06 03:13:40;;;;;;;37.70;5.63;;;3.80;99.90;;;;;;4951845;29;20055;-81
2023/01/06 03:16:08;;;;;;;17.88;3.50;;;3.90;99.90;;;;;;4951668;28;20070;-82
2023/01/06 03:18:37;;;;;;;36.05;4.68;;;4.10;99.90;;;;;;4968396;28;20047;-82
2023/01/06 03:21:12;;;;;;;19.63;5.35;;;4.20;99.90;;;;;;4944693;29;20047;-82
2023/01/06 03:23:41;;;;;;;36.90;4.72;;;4.20;99.90;;;;;;4952572;28;20047;-82
2023/01/06 03:26:10;;;;;;;56.17;5.72;;;3.90;99.90;;;;;;4951927;29;20059;-82
2023/01/06 03:28:38;;;;;;;12.90;2.22;;;3.60;99.90;;;;;;4951889;28;20054;-82
2023/01/06 03:31:16;;;;;;;26.80;3.58;;;3.60;99.90;;;;;;4968204;28;20069;-82
2023/01/06 03:34:02;;;;;;;14.43;3.10;;;3.20;99.90;;;;;;4935576;29;20074;-82
2023/01/06 03:36:55;;;;;;;94.30;6.68;;;3.10;99.90;;;;;;4951925;28;20043;-82
2023/01/06 03:39:49;;;;;;;29.48;3.92;;;3.20;99.90;;;;;;4972589;28;20057;-81
2023/01/06 03:46:11;;;;;;;25.60;3.10;;;3.30;99.90;;;;;;4989727;28;20061;-82
2023/01/06 03:48:48;;;;;;;1.95;1.85;;;3.50;99.90;;;;;;4918205;29;20070;-82
2023/01/06 03:51:35;;;;;;;10.75;1.65;;;3.90;99.90;;;;;;4965745;28;20050;-82
2023/01/06 03:54:23;;;;;;;30.50;4.15;;;4.10;99.90;;;;;;4987104;28;20054;-82
2023/01/06 03:57:04;;;;;;;30.27;4.18;;;4.10;99.90;;;;;;4973487;28;20050;-82
2023/01/06 03:59:39;;;;;;;1.80;1.70;;;3.60;99.90;;;;;;4988241;28;20062;-82
2023/01/06 04:02:08;;;;;;;56.58;5.68;;;3.70;99.90;;;;;;4990078;28;20043;-82
2023/01/06 04:04:36;;;;;;;49.20;5.90;;;3.80;99.90;;;;;;4989629;28;20054;-82
2023/01/06 04:07:04;;;;;;;1.63;1.52;;;3.50;99.90;;;;;;4989342;28;20050;-82
2023/01/06 04:09:36;;;;;;;1.65;1.55;;;3.70;99.90;;;;;;4978868;28;20050;-82
2023/01/06 04:14:52;;;;;;;2.63;1.95;;;4.30;99.90;;;;;;4951736;29;20058;-82
2023/01/06 04:17:21;;;;;;;12.30;4.00;;;4.30;99.90;;;;;;4966348;28;20046;-81
2023/01/06 04:19:49;;;;;;;7.28;2.25;;;4.40;99.90;;;;;;4970517;28;20471;-82
2023/01/06 04:22:17;;;;;;;1.58;1.48;;;4.40;99.90;;;;;;4988706;28;20053;-82
2023/01/06 04:24:45;;;;;;;1.58;1.48;;;4.40;99.90;;;;;;4989873;28;20069;-81
2023/01/06 04:27:14;;;;;;;1.92;1.83;;;4.60;99.90;;;;;;4990112;28;20061;-82
2023/01/06 04:29:42;;;;;;;1.70;1.60;;;4.80;99.90;;;;;;4988556;28;20049;-82
2023/01/06 04:32:13;;;;;;;2.17;1.40;;;4.90;99.90;;;;;;4989702;28;20046;-82
2023/01/06 04:34:41;;;;;;;1.73;1.63;;;4.90;99.90;;;;;;4990091;28;20054;-82
2023/01/06 04:37:10;;;;;;;47.80;7.70;;;4.80;99.90;;;;;;4987493;28;20046;-82
2023/01/06 04:39:41;;;;;;;1.77;1.45;;;4.70;99.90;;;;;;4972513;28;20042;-82
2023/01/06 04:42:09;;;;;;;6.13;2.20;;;4.50;99.90;;;;;;4991108;28;20057;-82
2023/01/06 04:44:37;;;;;;;5.97;2.85;;;4.50;99.90;;;;;;4989354;28;20043;-82
2023/01/06 04:47:05;;;;;;;15.02;1.77;;;4.40;99.90;;;;;;4989677;28;20255;-81
2023/01/06 04:49:32;;;;;;;26.92;4.90;;;4.40;99.90;;;;;;4989331;28;20042;-82
2023/01/06 04:52:00;;;;;;;4.10;1.20;;;4.40;99.90;;;;;;4990260;28;20046;-82
2023/01/06 04:54:28;;;;;;;1.40;1.30;;;4.40;99.90;;;;;;4989489;28;20062;-82
2023/01/06 04:56:56;;;;;;;66.50;5.00;;;4.50;99.90;;;;;;4991100;28;20070;-82
2023/01/06 04:59:24;;;;;;;11.00;2.55;;;4.10;99.90;;;;;;4989832;28;20357;-81
2023/01/06 05:01:51;;;;;;;11.20;2.53;;;3.60;99.90;;;;;;4989425;28;20054;-82
2023/01/06 05:04:19;;;;;;;33.30;4.82;;;3.50;99.90;;;;;;4988125;28;20259;-81
2023/01/06 05:06:47;;;;;;;32.25;2.60;;;3.70;99.90;;;;;;5005500;28;20050;-82
2023/01/06 05:09:15;;;;;;;36.30;2.38;;;3.70;99.90;;;;;;4976780;28;20050;-81
2023/01/06 05:11:45;;;;;;;31.35;4.07;;;3.60;99.90;;;;;;4968971;28;20046;-81
2023/01/06 05:14:14;;;;;;;22.45;5.35;;;3.40;99.90;;;;;;4969668;28;20054;-81
2023/01/06 05:16:48;;;;;;;60.15;4.57;;;3.30;99.90;;;;;;4970472;28;20066;-81
2023/01/06 05:19:15;;;;;;;29.83;2.90;;;3.40;99.90;;;;;;4969510;28;20058;-81
2023/01/06 05:21:46;;;;;;;64.28;3.97;;;3.40;99.90;;;;;;4987175;28;20046;-82
2023/01/06 05:24:13;;;;;;;27.63;3.53;;;3.40;99.90;;;;;;4987062;28;20077;-82
2023/01/06 05:26:41;;;;;;;88.43;7.20;;;3.30;99.90;;;;;;4989038;28;20054;-82
2023/01/06 05:29:14;;;;;;;35.67;3.33;;;3.20;99.90;;;;;;4971893;28;20046;-82
2023/01/06 05:31:42;;;;;;;6.05;1.88;;;2.90;99.90;;;;;;4990099;28;20043;-81
2023/01/06 05:35:20;;;;;;;24.77;2.47;;;2.80;99.90;;;;;;4992187;28;20047;-81
2023/01/06 05:37:48;;;;;;;4.68;2.08;;;3.00;99.90;;;;;;4989632;28;20053;-81
2023/01/06 05:40:16;;;;;;;1.20;1.20;;;3.00;99.90;;;;;;4990333;28;20053;-81
2023/01/06 05:42:44;;;;;;;35.03;4.35;;;3.10;99.90;;;;;;4990690;28;20073;-81
2023/01/06 05:45:14;;;;;;;56.20;4.65;;;3.10;99.90;;;;;;4992022;28;20042;-81
2023/01/06 05:47:43;;;;;;;30.60;3.25;;;3.10;99.90;;;;;;4991932;28;20057;-81
2023/01/06 05:50:10;;;;;;;28.08;3.20;;;3.00;99.90;;;;;;4990535;28;20050;-81
2023/01/06 05:52:38;;;;;;;11.43;2.00;;;3.00;99.90;;;;;;4989546;28;20050;-82
2023/01/06 05:55:06;;;;;;;73.75;5.65;;;2.90;99.90;;;;;;4990196;28;20050;-81
2023/01/06 05:57:35;;;;;;;50.50;3.55;;;2.90;99.90;;;;;;4991796;28;20073;-81
2023/01/06 06:00:05;;;;;;;51.75;4.75;;;2.90;99.90;;;;;;4991846;28;20045;-82
2023/01/06 06:02:38;;;;;;;42.00;4.13;;;3.00;99.90;;;;;;4990343;28;20054;-82
2023/01/06 06:05:08;;;;;;;25.50;2.78;;;3.20;99.90;;;;;;4990348;28;20046;-82
2023/01/06 06:07:36;;;;;;;50.13;3.17;;;3.20;99.90;;;;;;5006392;28;20050;-81
2023/01/06 06:10:05;;;;;;;27.33;2.97;;;3.30;99.90;;;;;;4987929;28;20065;-81
2023/01/06 06:12:33;;;;;;;55.22;4.88;;;3.30;99.90;;;;;;4991337;28;20043;-81
2023/01/06 06:15:01;;;;;;;22.00;3.17;;;3.30;99.90;;;;;;4990429;28;20046;-81
2023/01/06 06:17:30;;;;;;;61.92;5.55;;;3.00;99.90;;;;;;4989892;28;20050;-81
2023/01/06 06:19:57;;;;;;;35.80;3.33;;;2.60;99.90;;;;;;4990345;28;20057;-81
2023/01/06 06:22:25;;;;;;;57.97;5.85;;;2.40;99.90;;;;;;4993372;28;20093;-81
2023/01/06 06:24:52;;;;;;;60.00;4.85;;;2.60;99.90;;;;;;4977579;28;20370;-81
2023/01/06 06:27:20;;;;;;;4.05;1.50;;;2.70;99.90;;;;;;4994303;28;20042;-81
2023/01/06 06:29:48;;;;;;;45.15;3.35;;;2.70;99.90;;;;;;4995733;28;20088;-82
2023/01/06 06:32:15;;;;;;;104.18;5.82;;;2.80;99.90;;;;;;4994271;28;20054;-81
2023/01/06 06:34:43;;;;;;;33.45;3.10;;;2.80;99.90;;;;;;4995065;28;20058;-81
2023/01/06 06:37:11;;;;;;;47.80;5.88;;;2.40;99.90;;;;;;4977312;28;20371;-82
2023/01/06 06:39:39;;;;;;;34.55;3.45;;;2.00;99.90;;;;;;5009729;28;20046;-81
2023/01/06 06:42:06;;;;;;;27.20;3.25;;;2.10;99.90;;;;;;4995346;28;20054;-81
2023/01/06 06:44:34;;;;;;;35.20;3.13;;;2.30;99.90;;;;;;5010017;28;20054;-81
2023/01/06 06:47:01;;;;;;;55.63;3.30;;;2.50;99.90;;;;;;4978329;28;20050;-81
2023/01/06 06:49:29;;;;;;;2.47;2.15;;;2.80;99.90;;;;;;4995131;28;20046;-81
2023/01/06 06:51:57;;;;;;;2.13;1.90;;;2.90;99.90;;;;;;4993679;28;20042;-81
2023/01/06 06:54:24;;;;;;;8.93;1.85;;;3.00;99.90;;;;;;4993992;28;20069;-82
2023/01/06 06:56:52;;;;;;;5.43;2.08;;;3.10;99.90;;;;;;5008843;28;20057;-82
2023/01/06 06:59:20;;;;;;;79.53;5.75;;;3.00;99.90;;;;;;5018766;28;20042;-81
2023/01/06 07:01:48;;;;;;;16.40;3.80;;;2.60;99.90;;;;;;5019222;28;20038;-82
2023/01/06 07:04:16;;;;;;;75.00;6.22;;;2.20;99.90;;;;;;5018453;28;20535;-82
2023/01/06 07:06:44;;;;;;;66.00;6.32;;;2.30;99.90;;;;;;5017582;28;20058;-82
2023/01/06 07:09:12;;;;;;;40.10;3.17;;;2.40;99.90;;;;;;5007163;28;20057;-82
2023/01/06 07:11:39;;;;;;;21.52;2.22;;;2.50;99.90;;;;;;4999620;28;20034;-82
2023/01/06 07:14:07;;;;;;;46.72;3.47;;;2.50;99.90;;;;;;4982788;28;20041;-81
2023/01/06 07:16:35;;;;;;;34.20;2.35;;;2.30;99.90;;;;;;4998404;28;20039;-82
2023/01/06 07:19:03;;;;;;;51.17;3.25;;;1.90;99.90;;;;;;4998444;28;20054;-81
2023/01/06 07:21:30;;;;;;;50.97;2.60;;;1.80;99.90;;;;;;4998692;28;20037;-82
2023/01/06 07:23:58;;;;;;;31.58;4.07;;;1.90;99.90;;;;;;4996231;28;20051;-81
2023/01/06 07:26:26;;;;;;;21.10;2.45;;;2.10;99.90;;;;;;4982691;28;20039;-81
2023/01/06 07:28:54;;;;;;;1.48;1.40;;;2.50;99.90;;;;;;4999040;28;20039;-81
2023/01/06 07:31:21;;;;;;;2.75;2.55;;;2.80;99.90;;;;;;4997877;28;20039;-81
2023/01/06 07:33:51;;;;;;;2.03;1.92;;;3.00;99.90;;;;;;4998361;28;20130;-82
2023/01/06 07:36:20;;;;;;;10.77;2.33;;;3.10;99.90;;;;;;4997618;28;20047;-82
2023/01/06 07:38:48;;;;;;;39.50;4.18;;;3.00;99.90;;;;;;5004261;28;20018;-82
2023/01/06 07:41:16;;;;;;;18.00;3.78;;;2.50;99.90;;;;;;5000737;28;20042;-82
2023/01/06 07:43:46;;;;;;;17.95;2.55;;;2.10;99.90;;;;;;5000818;28;20038;-82
2023/01/06 07:46:14;;;;;;;9.95;2.47;;;2.00;99.90;;;;;;5033162;28;20053;-81
2023/01/06 07:48:42;;;;;;;29.55;2.92;;;2.00;99.90;;;;;;5016532;28;20039;-82
2023/01/06 07:51:10;;;;;;;21.75;2.60;;;2.00;99.90;;;;;;5017152;28;20064;-82
2023/01/06 07:53:38;;;;;;;17.73;2.25;;;1.90;99.90;;;;;;5015110;28;20064;-82
2023/01/06 07:56:06;;;;;;;73.53;5.50;;;2.00;99.90;;;;;;5016978;28;20049;-82
2023/01/06 07:58:33;;;;;;;115.88;14.00;;;2.20;99.90;;;;;;5016915;28;20046;-81
2023/01/06 08:01:06;;;;;;;95.88;8.55;;;2.60;99.90;;;;;;5030871;28;20035;-82
2023/01/06 08:03:34;;;;;;;31.48;3.92;;;2.90;99.90;;;;;;5016200;28;20050;-83
2023/01/06 08:06:09;;;;;;;14.00;3.58;;;3.00;99.90;;;;;;4992723;28;20043;-83
2023/01/06 08:08:39;;;;;;;11.48;2.88;;;3.10;99.90;;;;;;4981965;28;20042;-83
2023/01/06 08:11:10;;;;;;;4.93;3.50;;;3.20;99.90;;;;;;4981375;28;20188;-83
2023/01/06 08:13:38;;;;;;;9.80;3.20;;;3.50;99.90;;;;;;4997164;28;20065;-83
2023/01/06 08:16:07;;;;;;;43.70;7.00;;;3.60;99.90;;;;;;4955245;28;20282;-83
2023/01/06 08:18:36;;;;;;;13.98;4.22;;;3.70;99.90;;;;;;4967400;28;20055;-83
2023/01/06 08:21:06;;;;;;;56.83;7.15;;;3.40;99.90;;;;;;4965980;28;20050;-83
2023/01/06 08:23:36;;;;;;;21.48;2.45;;;3.30;99.90;;;;;;4969022;28;20069;-83
2023/01/06 08:26:07;;;;;;;51.97;3.50;;;3.20;99.90;;;;;;4971527;28;20051;-83
2023/01/06 08:28:35;;;;;;;60.13;4.53;;;3.10;99.90;;;;;;4971253;28;20050;-83
2023/01/06 08:31:07;;;;;;;29.02;3.00;;;2.90;99.90;;;;;;4954170;28;20055;-82
2023/01/06 08:33:36;;;;;;;33.60;5.32;;;2.90;99.90;;;;;;4985359;28;20525;-82
2023/01/06 08:36:07;;;;;;;16.75;2.10;;;2.80;99.90;;;;;;4985492;28;20410;-83
2023/01/06 08:38:36;;;;;;;18.00;2.27;;;2.80;99.90;;;;;;4973961;28;20046;-83
2023/01/06 08:41:05;;;;;;;10.50;2.10;;;2.90;99.90;;;;;;4989164;28;20533;-83
2023/01/06 08:43:34;;;;;;;2.80;1.80;;;3.00;99.90;;;;;;4990167;28;20050;-83
2023/01/06 08:46:04;;;;;;;1.75;1.65;;;3.20;99.90;;;;;;4976293;28;20053;-82
2023/01/06 08:48:34;;;;;;;3.38;1.95;;;3.30;99.90;;;;;;4968408;28;20047;-83
2023/01/06 08:51:03;;;;;;;13.35;3.95;;;3.40;99.90;;;;;;4985021;28;20054;-83
2023/01/06 08:53:35;;;;;;;11.75;2.30;;;3.40;99.90;;;;;;4951111;28;20327;-83
2023/01/06 08:56:03;;;;;;;2.33;2.20;;;3.30;99.90;;;;;;4968846;28;20043;-83
2023/01/06 08:58:30;;;;;;;3.58;3.20;;;3.50;99.90;;;;;;4953401;28;20078;-83
2023/01/06 09:00:59;;;;;;;4.53;3.80;;;3.70;99.90;;;;;;4977223;28;20058;-83
2023/01/06 09:03:27;;;;;;;3.58;3.33;;;3.90;99.90;;;;;;4988307;28;20050;-83
2023/01/06 09:05:56;;;;;;;3.83;3.53;;;4.10;99.90;;;;;;4986900;28;20046;-83
2023/01/06 09:08:24;;;;;;;3.80;3.35;;;4.40;99.90;;;;;;4963315;28;20042;-83
2023/01/06 09:10:51;;;;;;;4.03;3.72;;;4.50;99.90;;;;;;4966101;28;20105;-83
2023/01/06 09:13:19;;;;;;;3.33;3.05;;;4.70;99.90;;;;;;4968629;28;20050;-83
2023/01/06 09:15:47;;;;;;;4.13;3.72;;;4.90;99.90;;;;;;4965030;28;20054;-83
2023/01/06 09:18:15;;;;;;;5.15;4.75;;;5.00;99.90;;;;;;4965378;28;20550;-82
2023/01/06 09:20:45;;;;;;;3.72;3.42;;;5.10;99.90;;;;;;4968080;28;20042;-82
2023/01/06 09:23:13;;;;;;;4.28;3.70;;;5.10;99.90;;;;;;4971137;28;20069;-82
2023/01/06 09:25:40;;;;;;;3.85;3.55;;;5.10;99.90;;;;;;4987130;28;20050;-82
2023/01/06 09:28:09;;;;;;;4.18;3.22;;;5.20;99.90;;;;;;4988957;28;20053;-83
2023/01/06 09:30:37;;;;;;;2.10;2.00;;;5.40;99.90;;;;;;4988939;28;20046;-82
2023/01/06 09:33:04;;;;;;;2.72;2.63;;;5.50;99.90;;;;;;4988528;28;20065;-82
2023/01/06 09:35:32;;;;;;;3.28;3.03;;;5.70;99.90;;;;;;4987440;28;20061;-82
2023/01/06 09:38:00;;;;;;;2.72;2.53;;;6.00;99.90;;;;;;4986598;28;20050;-82
2023/01/06 09:40:39;;;;;;;1.85;1.75;;;6.70;99.90;;;;;;4973840;28;20054;-82
2023/01/06 09:43:37;;;;;;;2.30;2.10;;;7.60;99.90;;;;;;4968677;28;20055;-83
2023/01/06 09:46:07;;;;;;;4.05;3.65;;;8.80;99.90;;;;;;4958888;28;20507;-83
2023/01/06 09:48:41;;;;;;;2.30;2.13;;;9.10;99.90;;;;;;4966539;28;20047;-82
2023/01/06 09:51:17;;;;;;;1.15;1.15;;;8.70;99.90;;;;;;4951030;28;20051;-83
2023/01/06 09:53:55;;;;;;;1.88;1.77;;;8.40;99.90;;;;;;4948343;29;20050;-82
2023/01/06 09:56:24;;;;;;;1.92;1.50;;;8.20;99.90;;;;;;4933006;28;20054;-82
2023/01/06 09:59:15;;;;;;;3.58;1.10;;;8.90;99.90;;;;;;4949244;28;20439;-83
2023/01/06 10:01:47;;;;;;;;;;;9.90;99.90;;;;;;4950638;28;20043;-83
2023/01/06 10:04:20;;;;;;;1.33;1.23;;;9.80;99.90;;;;;;4948006;28;19922;-83
2023/01/06 10:06:57;;;;;;;1.48;1.38;;;9.30;99.90;;;;;;4965283;28;20051;-83
2023/01/06 10:09:36;;;;;;;1.65;1.55;;;8.90;99.90;;;;;;4939052;28;20047;-82
2023/01/06 10:12:31;;;;;;;3.15;1.27;;;8.60;99.90;;;;;;4948449;28;20032;-83
2023/01/06 10:15:23;;;;;;;1.48;1.38;;;8.50;99.90;;;;;;4948996;29;20047;-82
2023/01/06 10:18:30;;;;;;;1.63;1.30;;;8.50;99.90;;;;;;4947000;29;20059;-82
2023/01/06 10:21:06;;;;;;;1.35;1.25;;;8.50;99.90;;;;;;4971746;28;20062;-82
2023/01/06 10:23:49;;;;;;;1.13;1.00;;;8.40;99.90;;;;;;4986061;28;20051;-82
2023/01/06 10:26:36;;;;;;;2.00;1.20;;;8.40;99.90;;;;;;4977577;28;20065;-82
2023/01/06 10:29:12;;;;;;;1.00;1.00;;;8.40;99.90;;;;;;4982918;28;20045;-81
2023/01/06 10:31:43;;;;;;;2.08;1.88;;;8.40;99.90;;;;;;4986804;28;20417;-82
2023/01/06 10:34:26;;;;;;;2.15;1.40;;;8.50;99.90;;;;;;5003336;28;20050;-82
2023/01/06 10:37:15;;;;;;;0.88;0.88;;;8.50;99.90;;;;;;4988093;28;20050;-83
2023/01/06 10:39:47;;;;;;;0.65;0.65;;;8.70;99.90;;;;;;4986009;28;20042;-83
2023/01/06 10:42:56;;;;;;;0.50;0.50;;;8.80;99.90;;;;;;4984576;28;20573;-83
2023/01/06 10:45:52;;;;;;;0.80;0.80;;;8.90;99.90;;;;;;4967054;28;20070;-83
2023/01/06 10:48:26;;;;;;;2.72;2.60;;;9.00;99.90;;;;;;4977708;28;20062;-82
2023/01/06 10:50:55;;;;;;;0.80;0.80;;;9.00;99.90;;;;;;4984164;28;20057;-81
2023/01/06 10:53:24;;;;;;;0.57;0.57;;;9.10;99.90;;;;;;4983078;28;20058;-81
2023/01/06 10:55:53;;;;;;;0.70;0.70;;;9.20;99.90;;;;;;4968800;28;20050;-82
2023/01/06 10:58:41;;;;;;;0.80;0.75;;;9.20;99.90;;;;;;4968831;28;20135;-81
2023/01/06 11:01:14;;;;;;;0.60;0.60;;;9.20;99.90;;;;;;4944674;28;20446;-83
2023/01/06 11:03:44;;;;;;;0.70;0.60;;;9.30;99.90;;;;;;4949893;28;20043;-82
2023/01/06 11:06:27;;;;;;;1.23;1.13;;;9.30;99.90;;;;;;4932832;29;20047;-82
2023/01/06 11:08:56;;;;;;;0.95;0.80;;;9.20;99.90;;;;;;4953952;28;20039;-82
2023/01/06 11:11:24;;;;;;;0.73;0.73;;;9.20;99.90;;;;;;4953874;28;20062;-82
2023/01/06 11:14:04;;;;;;;1.15;1.15;;;9.20;99.90;;;;;;4953341;28;20055;-82
2023/01/06 11:16:34;;;;;;;1.00;0.90;;;9.20;99.90;;;;;;4970884;28;20039;-82
2023/01/06 11:19:06;;;;;;;0.80;0.80;;;9.20;99.90;;;;;;4972672;28;20055;-83
2023/01/06 11:21:43;;;;;;;4.85;1.00;;;9.20;99.90;;;;;;4979154;28;20046;-82
2023/01/06 11:24:23;;;;;;;1.20;1.10;;;9.20;99.90;;;;;;4969526;28;20046;-81
2023/01/06 11:26:55;;;;;;;0.80;0.77;;;9.30;99.90;;;;;;4953898;28;20059;-82
2023/01/06 11:29:32;;;;;;;1.00;0.80;;;9.40;99.90;;;;;;4951520;28;20043;-83
2023/01/06 11:32:05;;;;;;;0.75;0.75;;;9.40;99.90;;;;;;4952772;28;20050;-81
2023/01/06 11:34:33;;;;;;;3.30;0.82;;;9.40;99.90;;;;;;4967890;28;20481;-82
2023/01/06 11:37:01;;;;;;;0.77;0.77;;;9.40;99.90;;;;;;4967044;28;20055;-82
2023/01/06 11:39:35;;;;;;;1.58;0.88;;;9.50;99.90;;;;;;4975614;28;20066;-82
2023/01/06 11:42:13;;;;;;;0.93;0.93;;;9.60;99.90;;;;;;4990986;28;20054;-82
2023/01/06 11:44:42;;;;;;;1.20;1.13;;;9.60;99.90;;;;;;4991239;28;20050;-81
2023/01/06 11:47:19;;;;;;;1.73;1.30;;;9.70;99.90;;;;;;4973831;28;20131;-81
2023/01/06 11:49:55;;;;;;;1.05;0.93;;;9.80;99.90;;;;;;4990440;28;20042;-81
2023/01/06 11:52:31;;;;;;;1.23;0.85;;;9.70;99.90;;;;;;4967381;28;20398;-81
2023/01/06 11:55:18;;;;;;;1.08;0.98;;;9.80;99.90;;;;;;4958750;28;20051;-81
2023/01/06 11:58:07;;;;;;;2.63;0.90;;;9.80;99.90;;;;;;4984621;28;20051;-83
2023/01/06 12:00:40;;;;;;;1.40;1.33;;;9.90;99.90;;;;;;4990636;28;20543;-82
2023/01/06 12:03:33;;;;;;;0.80;0.80;;;9.90;99.90;;;;;;4984060;28;20061;-82
2023/01/06 12:06:31;;;;;;;1.45;0.90;;;10.00;99.90;;;;;;4912985;28;20055;-81
2023/01/06 12:09:10;;;;;;;1.20;1.10;;;10.10;99.90;;;;;;4937495;29;20284;-81
2023/01/06 12:12:01;;;;;;;3.95;1.38;;;10.10;99.90;;;;;;4950337;28;20062;-81
2023/01/06 12:14:31;;;;;;;;;;;10.20;99.90;;;;;;4951716;29;20051;-81
2023/01/06 12:17:13;;;;;;;1.13;1.00;;;10.20;99.90;;;;;;4952094;28;19926;-81
2023/01/06 12:19:51;;;;;;;1.30;1.17;;;10.40;99.90;;;;;;4952459;28;20503;-81
2023/01/06 12:22:39;;;;;;;0.70;0.70;;;10.40;99.90;;;;;;4989658;28;20062;-80
2023/01/06 12:25:47;;;;;;;1.05;1.05;;;10.50;99.90;;;;;;4988608;28;20050;-81
2023/01/06 12:28:20;;;;;;;1.05;0.90;;;10.40;99.90;;;;;;4988347;28;20054;-80
2023/01/06 12:30:49;;;;;;;1.48;0.93;;;10.40;99.90;;;;;;4990328;28;20597;-81
2023/01/06 12:33:28;;;;;;;1.63;0.98;;;10.30;99.90;;;;;;4988534;28;20050;-81
2023/01/06 12:36:01;;;;;;;1.10;0.90;;;10.40;99.90;;;;;;4988931;28;20054;-81
2023/01/06 12:38:45;;;;;;;0.93;0.80;;;10.40;99.90;;;;;;4989510;28;20046;-81
2023/01/06 12:41:22;;;;;;;0.93;0.63;;;10.40;99.90;;;;;;4973671;28;20043;-81
2023/01/06 12:44:22;;;;;;;0.90;0.90;;;10.50;99.90;;;;;;4989410;28;20046;-80
2023/01/06 12:47:09;;;;;;;1.50;1.00;;;10.50;99.90;;;;;;4988770;28;20062;-81
2023/01/06 12:49:53;;;;;;;1.77;1.67;;;10.50;99.90;;;;;;4969002;28;20047;-81
2023/01/06 12:52:32;;;;;;;1.00;0.95;;;10.50;99.90;;;;;;4950685;28;20047;-81
2023/01/06 12:55:00;;;;;;;1.20;1.10;;;10.60;99.90;;;;;;4952195;28;20055;-81
2023/01/06 12:57:30;;;;;;;0.70;0.70;;;10.70;99.90;;;;;;4934053;29;20414;-80
2023/01/06 13:00:20;;;;;;;0.97;0.77;;;10.80;99.90;;;;;;4965494;28;20528;-80
2023/01/06 13:03:16;;;;;;;1.55;1.00;;;10.90;99.90;;;;;;4966576;28;20051;-81
2023/01/06 13:06:00;;;;;;;1.30;0.82;;;10.80;99.90;;;;;;4956912;28;20058;-81
2023/01/06 13:08:56;;;;;;;1.58;0.75;;;10.70;99.90;;;;;;4975340;28;20123;-81
2023/01/06 13:11:45;;;;;;;0.80;0.80;;;10.80;99.90;;;;;;4951828;28;20515;-82
2023/01/06 13:14:30;;;;;;;0.70;0.70;;;10.80;99.90;;;;;;4950021;29;20062;-80
2023/01/06 13:17:23;;;;;;;0.65;0.65;;;10.80;99.90;;;;;;4950991;28;20039;-81
2023/01/06 13:19:54;;;;;;;1.25;1.23;;;10.70;99.90;;;;;;4937453;28;20043;-80
2023/01/06 13:22:42;;;;;;;0.63;0.63;;;10.80;99.90;;;;;;4988645;28;20042;-82
2023/01/06 13:25:36;;;;;;;1.27;0.70;;;10.90;99.90;;;;;;4965038;28;20511;-81
2023/01/06 13:28:22;;;;;;;0.70;0.70;;;11.30;99.90;;;;;;4989332;28;20050;-81
2023/01/06 13:31:22;;;;;;;1.25;1.15;;;11.30;99.90;;;;;;4947967;28;20059;-80
2023/01/06 13:34:02;;;;;;;0.75;0.70;;;11.10;99.90;;;;;;4964746;28;20051;-82
2023/01/06 13:37:01;;;;;;;2.92;0.98;;;10.90;99.90;;;;;;4964891;28;20047;-81
2023/01/06 13:39:33;;;;;;;0.60;0.60;;;10.70;99.90;;;;;;4963583;28;20069;-82